createdAt,value
2023-03-24T00:01:24.855Z,44.56
2023-03-24T00:03:53.358Z,44.87
2023-03-24T00:06:23.473Z,44.59
2023-03-24T00:08:51.850Z,44.51
2023-03-24T00:11:21.992Z,44.80
2023-03-24T00:13:51.113Z,44.85
2023-03-24T00:16:20.696Z,44.95
2023-03-24T00:18:54.267Z,44.99
2023-03-24T00:21:25.532Z,45.28
2023-03-24T00:23:56.140Z,45.44
2023-03-24T00:26:25.903Z,45.34
2023-03-24T00:28:55.182Z,46.11
2023-03-24T00:31:25.190Z,45.90
2023-03-24T00:33:54.584Z,46.38
2023-03-24T00:36:25.188Z,46.65
2023-03-24T00:38:54.719Z,47.08
2023-03-24T00:41:27.637Z,46.81
2023-03-24T00:43:59.237Z,46.86
2023-03-24T00:46:28.955Z,46.60
2023-03-24T00:49:03.336Z,46.57
2023-03-24T00:51:37.621Z,46.83
2023-03-24T00:54:07.480Z,47.27
2023-03-24T00:56:38.549Z,47.11
2023-03-24T00:59:06.991Z,46.82
2023-03-24T01:01:37.194Z,46.97
2023-03-24T01:04:07.133Z,47.21
2023-03-24T01:06:38.578Z,47.32
2023-03-24T01:09:08.129Z,47.33
2023-03-24T01:11:40.753Z,47.01
2023-03-24T01:14:10.455Z,47.29
2023-03-24T01:16:38.910Z,47.70
2023-03-24T01:19:09.928Z,47.79
2023-03-24T01:21:39.818Z,47.75
2023-03-24T01:24:09.178Z,47.57
2023-03-24T01:26:37.591Z,48.03
2023-03-24T01:29:06.826Z,48.48
2023-03-24T01:31:35.503Z,48.43
2023-03-24T01:34:04.281Z,48.96
2023-03-24T01:36:32.546Z,49.24
2023-03-24T01:39:02.054Z,49.51
2023-03-24T01:41:39.490Z,49.77
2023-03-24T01:44:33.161Z,50.31
2023-03-24T01:47:02.993Z,50.66
2023-03-24T01:49:38.031Z,50.93
2023-03-24T01:52:12.220Z,50.81
2023-03-24T01:54:45.702Z,51.20
2023-03-24T01:57:21.664Z,51.82
2023-03-24T01:59:53.865Z,52.00
2023-03-24T02:02:23.050Z,53.77
2023-03-24T02:05:00.186Z,53.30
2023-03-24T02:07:54.261Z,53.42
2023-03-24T02:10:24.672Z,53.76
2023-03-24T02:12:52.962Z,55.13
2023-03-24T02:15:23.606Z,55.44
2023-03-24T02:18:14.288Z,56.28
2023-03-24T02:21:06.828Z,56.19
2023-03-24T02:23:54.974Z,56.42
2023-03-24T02:26:50.747Z,57.11
2023-03-24T02:29:47.506Z,56.93
2023-03-24T02:33:02.942Z,57.63
2023-03-24T02:35:55.787Z,57.21
2023-03-24T02:38:35.283Z,57.10
2023-03-24T02:41:21.692Z,57.15
2023-03-24T02:44:08.375Z,57.18
2023-03-24T02:46:46.194Z,56.99
2023-03-24T02:49:23.998Z,56.77
2023-03-24T02:52:06.272Z,56.58
2023-03-24T02:54:55.767Z,56.54
2023-03-24T02:57:33.005Z,56.49
2023-03-24T03:00:14.777Z,56.35
2023-03-24T03:02:59.731Z,56.46
2023-03-24T03:05:27.563Z,56.53
2023-03-24T03:08:00.080Z,56.59
2023-03-24T03:10:36.352Z,56.95
2023-03-24T03:13:12.288Z,57.47
2023-03-24T03:15:46.257Z,57.00
2023-03-24T03:18:34.904Z,57.23
2023-03-24T03:21:10.005Z,57.05
2023-03-24T03:23:47.336Z,57.30
2023-03-24T03:26:20.550Z,57.52
2023-03-24T03:28:58.569Z,57.53
2023-03-24T03:31:37.443Z,57.51
2023-03-24T03:34:38.669Z,58.11
2023-03-24T03:37:17.567Z,57.79
2023-03-24T03:39:54.042Z,57.66
2023-03-24T03:42:23.106Z,57.92
2023-03-24T03:44:51.623Z,58.75
2023-03-24T03:47:22.137Z,58.36
2023-03-24T03:49:51.838Z,58.64
2023-03-24T03:52:20.815Z,58.79
2023-03-24T03:54:50.334Z,59.07
2023-03-24T03:57:21.341Z,58.76
2023-03-24T03:59:49.589Z,59.28
2023-03-24T04:02:43.022Z,59.18
2023-03-24T04:05:47.061Z,59.51
2023-03-24T04:08:49.038Z,59.66
2023-03-24T04:11:32.445Z,59.62
2023-03-24T04:14:45.799Z,59.75
2023-03-24T04:17:31.782Z,59.67
2023-03-24T04:20:21.196Z,59.66
2023-03-24T04:22:59.349Z,60.04
2023-03-24T04:25:30.632Z,59.79
2023-03-24T04:28:07.713Z,60.20
2023-03-24T04:30:45.458Z,59.87
2023-03-24T04:33:24.056Z,59.93
2023-03-24T04:36:07.236Z,60.33
2023-03-24T04:38:39.108Z,60.47
2023-03-24T04:41:08.289Z,60.20
2023-03-24T04:43:39.173Z,60.52
2023-03-24T04:46:10.169Z,60.26
2023-03-24T04:48:38.509Z,60.16
2023-03-24T04:51:09.407Z,59.90
2023-03-24T04:53:37.938Z,59.86
2023-03-24T04:56:29.751Z,60.22
2023-03-24T04:58:59.585Z,60.56
2023-03-24T05:01:31.033Z,60.55
2023-03-24T05:04:00.526Z,61.17
2023-03-24T05:06:28.971Z,61.50
2023-03-24T05:08:59.774Z,61.74
2023-03-24T05:11:28.532Z,61.82
2023-03-24T05:13:56.811Z,61.96
2023-03-24T05:16:25.035Z,62.36
2023-03-24T05:18:53.241Z,62.23
2023-03-24T05:21:21.564Z,62.71
2023-03-24T05:23:49.821Z,62.87
2023-03-24T05:26:18.098Z,63.29
2023-03-24T05:28:46.526Z,63.37
2023-03-24T05:31:14.827Z,63.46
2023-03-24T05:33:43.058Z,62.94
2023-03-24T05:36:12.273Z,62.95
2023-03-24T05:38:40.824Z,62.93
2023-03-24T05:41:09.440Z,63.08
2023-03-24T05:43:37.687Z,63.16
2023-03-24T05:46:06.117Z,63.25
2023-03-24T05:48:34.396Z,63.27
2023-03-24T05:51:02.860Z,63.22
2023-03-24T05:53:31.933Z,63.33
2023-03-24T05:56:00.399Z,63.22
2023-03-24T05:58:28.616Z,63.51
2023-03-24T06:00:57.971Z,63.21
2023-03-24T06:03:26.338Z,63.73
2023-03-24T06:05:54.653Z,63.62
2023-03-24T06:08:22.860Z,64.09
2023-03-24T06:10:51.192Z,63.90
2023-03-24T06:13:19.370Z,64.03
2023-03-24T06:15:48.876Z,64.21
2023-03-24T06:18:17.249Z,63.77
2023-03-24T06:20:45.952Z,64.08
2023-03-24T06:23:14.164Z,64.18
2023-03-24T06:25:45.477Z,64.70
2023-03-24T06:28:15.057Z,64.31
2023-03-24T06:30:45.957Z,63.93
2023-03-24T06:33:15.582Z,64.07
2023-03-24T06:35:44.409Z,64.28
2023-03-24T06:38:12.852Z,64.26
2023-03-24T06:40:41.057Z,64.19
2023-03-24T06:43:09.303Z,64.21
2023-03-24T06:45:40.320Z,64.53
2023-03-24T06:48:08.641Z,64.08
2023-03-24T06:50:40.006Z,64.18
2023-03-24T06:53:09.381Z,64.07
2023-03-24T06:55:37.935Z,64.40
2023-03-24T06:58:06.293Z,64.18
2023-03-24T07:00:35.828Z,64.13
2023-03-24T07:03:04.341Z,64.08
2023-03-24T07:05:34.571Z,63.77
2023-03-24T07:08:27.841Z,63.79
2023-03-24T07:10:52.026Z,63.74
2023-03-24T07:13:20.257Z,63.82
2023-03-24T07:15:48.472Z,63.76
2023-03-24T07:18:16.898Z,63.52
2023-03-24T07:20:45.520Z,63.66
2023-03-24T07:23:14.591Z,63.45
2023-03-24T07:25:46.153Z,63.50
2023-03-24T07:28:14.376Z,63.32
2023-03-24T07:30:42.631Z,63.49
2023-03-24T07:33:12.938Z,63.53
2023-03-24T07:35:41.700Z,63.37
2023-03-24T07:38:11.022Z,63.45
2023-03-24T07:40:39.372Z,63.52
2023-03-24T07:43:07.695Z,63.46
2023-03-24T07:45:36.125Z,63.33
2023-03-24T07:48:04.490Z,63.01
2023-03-24T07:50:33.734Z,62.94
2023-03-24T07:53:02.067Z,62.95
2023-03-24T07:55:30.640Z,62.91
2023-03-24T07:57:58.973Z,62.92
2023-03-24T08:00:27.233Z,62.76
2023-03-24T08:02:55.886Z,62.76
2023-03-24T08:05:25.640Z,63.06
2023-03-24T08:07:57.973Z,63.02
2023-03-24T08:10:28.786Z,63.06
2023-03-24T08:12:58.295Z,63.12
2023-03-24T08:15:28.292Z,63.10
2023-03-24T08:17:57.577Z,63.20
2023-03-24T08:20:27.948Z,63.30
2023-03-24T08:22:56.811Z,63.42
2023-03-24T08:25:27.595Z,63.09
2023-03-24T08:27:56.173Z,63.00
2023-03-24T08:30:26.483Z,63.12
2023-03-24T08:33:03.417Z,63.12
2023-03-24T08:35:39.469Z,63.23
2023-03-24T08:38:10.234Z,63.50
2023-03-24T08:40:39.998Z,63.53
2023-03-24T08:43:09.786Z,63.66
2023-03-24T08:45:38.632Z,63.75
2023-03-24T08:48:08.892Z,63.80
2023-03-24T08:50:40.252Z,63.80
2023-03-24T08:53:09.553Z,63.54
2023-03-24T08:55:42.414Z,63.49
2023-03-24T08:58:15.886Z,63.46
2023-03-24T09:00:45.530Z,63.03
2023-03-24T09:03:23.136Z,63.25
2023-03-24T09:05:51.871Z,63.16
2023-03-24T09:08:21.038Z,63.04
2023-03-24T09:10:49.553Z,63.24
2023-03-24T09:13:18.749Z,63.49
2023-03-24T09:15:49.691Z,63.54
2023-03-24T09:18:18.974Z,63.81
2023-03-24T09:20:48.016Z,63.56
2023-03-24T09:23:17.072Z,63.75
2023-03-24T09:25:46.013Z,63.95
2023-03-24T09:28:15.809Z,63.83
2023-03-24T09:30:45.072Z,63.58
2023-03-24T09:33:13.803Z,63.95
2023-03-24T09:35:42.801Z,63.96
2023-03-24T09:38:13.010Z,63.82
2023-03-24T09:40:43.453Z,63.50
2023-03-24T09:43:23.988Z,63.59
2023-03-24T09:45:57.935Z,63.21
2023-03-24T09:48:49.257Z,63.45
2023-03-24T09:51:25.574Z,63.15
2023-03-24T09:54:02.690Z,63.40
2023-03-24T09:56:33.732Z,63.36
2023-03-24T09:59:17.518Z,63.04
2023-03-24T10:01:46.369Z,62.87
2023-03-24T10:04:22.582Z,62.98
2023-03-24T10:06:58.279Z,62.84
2023-03-24T10:09:36.263Z,62.33
2023-03-24T10:12:27.121Z,62.12
2023-03-24T10:15:30.944Z,62.07
2023-03-24T10:18:19.044Z,61.96
2023-03-24T10:21:18.698Z,62.25
2023-03-24T10:23:49.596Z,62.06
2023-03-24T10:26:17.794Z,61.47
2023-03-24T10:28:57.790Z,61.62
2023-03-24T10:31:37.515Z,61.19
2023-03-24T10:34:06.204Z,61.58
2023-03-24T10:36:34.839Z,61.42
2023-03-24T10:39:12.913Z,60.66
2023-03-24T10:41:47.196Z,60.40
2023-03-24T10:44:15.977Z,60.33
2023-03-24T10:46:50.785Z,59.81
2023-03-24T10:49:20.625Z,60.15
2023-03-24T10:51:54.934Z,59.74
2023-03-24T10:54:28.452Z,59.50
2023-03-24T10:57:00.071Z,59.66
2023-03-24T10:59:33.905Z,59.67
2023-03-24T11:02:11.118Z,59.45
2023-03-24T11:04:41.404Z,59.97
2023-03-24T11:07:19.885Z,59.79
2023-03-24T11:09:58.937Z,60.27
2023-03-24T11:12:30.154Z,60.21
2023-03-24T11:15:24.038Z,60.34
2023-03-24T11:17:58.595Z,60.28
2023-03-24T11:20:38.073Z,60.30
2023-03-24T11:23:15.078Z,60.42
2023-03-24T11:25:45.838Z,60.16
2023-03-24T11:28:20.154Z,59.89
2023-03-24T11:30:51.418Z,60.18
2023-03-24T11:33:36.092Z,60.26
2023-03-24T11:36:31.214Z,60.16
2023-03-24T11:39:21.176Z,60.46
2023-03-24T11:42:02.568Z,60.70
2023-03-24T11:44:42.850Z,60.44
2023-03-24T11:47:34.602Z,60.79
2023-03-24T11:50:11.825Z,61.00
2023-03-24T11:53:23.369Z,60.62
2023-03-24T11:56:17.477Z,60.99
2023-03-24T11:59:00.204Z,60.89
2023-03-24T12:01:34.068Z,61.42
2023-03-24T12:04:30.431Z,61.29
2023-03-24T12:07:08.784Z,61.32
2023-03-24T12:09:46.871Z,61.60
2023-03-24T12:12:43.278Z,61.21
2023-03-24T12:15:27.374Z,61.95
2023-03-24T12:18:02.137Z,61.69
2023-03-24T12:20:39.497Z,61.59
2023-03-24T12:23:36.961Z,61.13
2023-03-24T12:26:30.171Z,61.78
2023-03-24T12:29:38.331Z,61.21
2023-03-24T12:32:24.512Z,61.46
2023-03-24T12:35:22.349Z,61.37
2023-03-24T12:37:59.041Z,62.29
2023-03-24T12:41:08.704Z,61.62
2023-03-24T12:43:59.811Z,61.50
2023-03-24T12:46:53.790Z,61.97
2023-03-24T12:49:49.043Z,61.74
2023-03-24T12:53:06.745Z,61.24
2023-03-24T12:55:50.391Z,61.37
2023-03-24T12:58:36.211Z,61.76
2023-03-24T13:01:22.743Z,61.95
2023-03-24T13:04:09.809Z,61.66
2023-03-24T13:06:54.030Z,61.74
2023-03-24T13:10:00.225Z,61.81
2023-03-24T13:13:01.807Z,62.17
2023-03-24T13:15:42.659Z,62.83
2023-03-24T13:18:19.524Z,62.18
2023-03-24T13:20:57.728Z,63.01
2023-03-24T13:23:46.789Z,62.84
2023-03-24T13:26:40.743Z,62.98
2023-03-24T13:29:47.919Z,62.54
2023-03-24T13:32:26.223Z,62.79
2023-03-24T13:35:06.804Z,63.15
2023-03-24T13:37:39.919Z,62.94
2023-03-24T13:40:16.692Z,62.89
2023-03-24T13:42:49.353Z,63.31
2023-03-24T13:45:53.916Z,63.22
2023-03-24T13:48:34.602Z,63.05
2023-03-24T13:51:06.157Z,63.75
2023-03-24T13:53:36.880Z,64.03
2023-03-24T13:56:08.223Z,63.88
2023-03-24T13:59:00.821Z,63.82
2023-03-24T14:01:39.502Z,63.33
2023-03-24T14:04:19.985Z,63.12
2023-03-24T14:06:59.831Z,63.34
2023-03-24T14:09:30.438Z,63.74
2023-03-24T14:12:05.792Z,63.91
2023-03-24T14:15:13.828Z,63.38
2023-03-24T14:17:50.634Z,64.41
2023-03-24T14:20:34.441Z,64.30
2023-03-24T14:23:05.021Z,63.77
2023-03-24T14:25:35.180Z,63.83
2023-03-24T14:28:21.852Z,64.14
2023-03-24T14:31:16.983Z,64.09
2023-03-24T14:33:54.518Z,64.43
2023-03-24T14:36:45.117Z,64.24
2023-03-24T14:39:28.033Z,64.14
2023-03-24T14:41:59.039Z,64.82
2023-03-24T14:44:53.209Z,64.65
2023-03-24T14:47:23.659Z,64.64
2023-03-24T14:49:56.490Z,64.68
2023-03-24T14:52:41.155Z,65.11
2023-03-24T14:55:20.329Z,64.40
2023-03-24T14:57:57.344Z,64.94
2023-03-24T15:00:45.490Z,64.68
2023-03-24T15:04:01.230Z,64.54
2023-03-24T15:06:29.979Z,64.93
2023-03-24T15:09:00.239Z,64.47
2023-03-24T15:11:34.628Z,64.53
2023-03-24T15:14:06.250Z,64.71
2023-03-24T15:16:38.898Z,64.55
2023-03-24T15:19:20.804Z,64.04
2023-03-24T15:21:51.564Z,63.51
2023-03-24T15:24:23.010Z,63.39
2023-03-24T15:26:55.041Z,62.71
2023-03-24T15:29:24.767Z,62.24
2023-03-24T15:31:53.219Z,62.01
2023-03-24T15:34:32.308Z,60.31
2023-03-24T15:37:04.389Z,60.23
2023-03-24T15:39:41.858Z,59.56
2023-03-24T15:42:18.929Z,59.40
2023-03-24T15:44:47.413Z,59.38
2023-03-24T15:47:25.588Z,58.94
2023-03-24T15:49:59.257Z,58.77
2023-03-24T15:52:37.155Z,57.81
2023-03-24T15:55:31.100Z,56.95
2023-03-24T15:58:02.665Z,57.46
2023-03-24T16:00:38.511Z,56.91
2023-03-24T16:03:07.946Z,56.78
2023-03-24T16:05:36.653Z,56.84
2023-03-24T16:08:26.633Z,56.78
2023-03-24T16:11:05.951Z,56.62
2023-03-24T16:13:34.628Z,55.56
2023-03-24T16:16:24.396Z,55.60
2023-03-24T16:18:53.232Z,55.91
2023-03-24T16:21:24.867Z,55.57
2023-03-24T16:23:55.006Z,54.93
2023-03-24T16:26:32.318Z,55.24
2023-03-24T16:29:18.112Z,55.41
2023-03-24T16:31:51.640Z,54.88
2023-03-24T16:34:23.824Z,54.37
2023-03-24T16:36:53.622Z,54.35
2023-03-24T16:39:24.773Z,53.82
2023-03-24T16:41:53.260Z,53.20
2023-03-24T16:44:22.433Z,53.52
2023-03-24T16:46:54.560Z,53.41
2023-03-24T16:49:24.577Z,52.95
2023-03-24T16:51:54.601Z,52.10
2023-03-24T16:54:23.019Z,52.38
2023-03-24T16:56:51.487Z,52.05
2023-03-24T16:59:20.592Z,52.13
2023-03-24T17:01:48.897Z,52.76
2023-03-24T17:04:23.204Z,51.19
2023-03-24T17:06:54.789Z,51.71
2023-03-24T17:09:24.421Z,51.74
2023-03-24T17:11:57.182Z,50.83
2023-03-24T17:14:25.448Z,50.93
2023-03-24T17:16:54.297Z,50.99
2023-03-24T17:19:25.162Z,51.41
2023-03-24T17:22:06.361Z,51.00
2023-03-24T17:24:42.538Z,49.09
2023-03-24T17:27:21.970Z,49.98
2023-03-24T17:29:50.415Z,50.85
2023-03-24T17:32:20.527Z,50.98
2023-03-24T17:34:50.428Z,49.93
2023-03-24T17:37:18.668Z,50.45
2023-03-24T17:39:49.741Z,50.23
2023-03-24T17:42:17.972Z,50.49
2023-03-24T17:44:46.449Z,49.00
2023-03-24T17:47:14.713Z,49.49
2023-03-24T17:49:43.556Z,49.59
2023-03-24T17:52:12.879Z,48.76
2023-03-24T17:54:41.175Z,49.06
2023-03-24T17:57:09.491Z,49.48
2023-03-24T17:59:38.712Z,48.86
2023-03-24T18:02:08.099Z,48.60
2023-03-24T18:04:36.346Z,48.88
2023-03-24T18:07:04.984Z,47.77
2023-03-24T18:09:33.852Z,48.58
2023-03-24T18:12:02.129Z,49.00
2023-03-24T18:14:30.411Z,48.79
2023-03-24T18:16:58.763Z,49.54
2023-03-24T18:19:27.438Z,49.09
2023-03-24T18:21:55.844Z,48.42
2023-03-24T18:24:26.413Z,48.42
2023-03-24T18:26:54.613Z,48.85
2023-03-24T18:29:23.899Z,48.40
2023-03-24T18:31:52.228Z,48.50
2023-03-24T18:34:20.581Z,48.90
2023-03-24T18:36:48.989Z,48.26
2023-03-24T18:39:17.737Z,47.31
2023-03-24T18:41:46.345Z,46.82
2023-03-24T18:44:15.713Z,47.91
2023-03-24T18:46:45.116Z,47.36
2023-03-24T18:49:16.612Z,46.96
2023-03-24T18:51:46.076Z,47.37
2023-03-24T18:54:14.920Z,46.90
2023-03-24T18:56:43.170Z,47.38
2023-03-24T18:59:12.625Z,46.41
2023-03-24T19:01:40.919Z,46.23
2023-03-24T19:04:10.154Z,46.61
2023-03-24T19:06:43.056Z,45.41
2023-03-24T19:09:19.121Z,45.85
2023-03-24T19:11:48.656Z,46.26
2023-03-24T19:14:16.978Z,44.67
2023-03-24T19:16:45.508Z,44.97
2023-03-24T19:19:13.750Z,44.29
2023-03-24T19:21:42.646Z,43.92
2023-03-24T19:24:11.048Z,43.91
2023-03-24T19:26:39.314Z,43.82
2023-03-24T19:29:07.596Z,42.67
2023-03-24T19:31:35.984Z,42.63
2023-03-24T19:34:04.383Z,42.87
2023-03-24T19:36:32.664Z,42.82
2023-03-24T19:39:02.716Z,42.85
2023-03-24T19:41:30.945Z,42.27
2023-03-24T19:43:59.221Z,42.13
2023-03-24T19:46:27.521Z,42.54
2023-03-24T19:48:55.722Z,42.22
2023-03-24T19:51:25.271Z,41.97
2023-03-24T19:53:53.487Z,41.19
2023-03-24T19:56:22.658Z,40.66
2023-03-24T19:58:51.068Z,40.69
2023-03-24T20:01:20.123Z,40.59
2023-03-24T20:03:48.576Z,40.30
2023-03-24T20:06:19.547Z,40.46
2023-03-24T20:08:48.052Z,40.49
2023-03-24T20:11:16.285Z,39.38
2023-03-24T20:13:44.488Z,39.34
2023-03-24T20:16:13.048Z,38.59
2023-03-24T20:18:41.273Z,38.68
2023-03-24T20:21:10.136Z,37.07
2023-03-24T20:23:38.416Z,37.70
2023-03-24T20:26:06.830Z,37.57
2023-03-24T20:28:35.096Z,36.33
2023-03-24T20:31:04.876Z,36.84
2023-03-24T20:33:33.591Z,37.19
2023-03-24T20:36:02.197Z,35.95
2023-03-24T20:38:30.476Z,35.85
2023-03-24T20:40:59.950Z,35.02
2023-03-24T20:43:28.252Z,36.02
2023-03-24T20:45:59.843Z,36.09
2023-03-24T20:48:28.335Z,35.47
2023-03-24T20:50:56.616Z,35.42
2023-03-24T20:53:25.702Z,35.40
2023-03-24T20:56:17.518Z,34.48
2023-03-24T20:58:46.744Z,34.04
2023-03-24T21:01:24.726Z,35.32
2023-03-24T21:03:55.616Z,35.16
2023-03-24T21:06:28.261Z,34.18
2023-03-24T21:08:58.613Z,34.86
2023-03-24T21:11:27.786Z,34.32
2023-03-24T21:13:56.174Z,32.90
2023-03-24T21:16:24.492Z,33.77
2023-03-24T21:18:54.904Z,33.58
2023-03-24T21:21:23.343Z,32.99
2023-03-24T21:23:53.521Z,33.53
2023-03-24T21:26:22.232Z,33.00
2023-03-24T21:28:50.828Z,33.08
2023-03-24T21:31:25.452Z,32.15
2023-03-24T21:33:55.298Z,33.16
2023-03-24T21:36:25.385Z,31.92
2023-03-24T21:38:54.904Z,30.95
2023-03-24T21:41:23.924Z,32.28
2023-03-24T21:43:54.860Z,32.74
2023-03-24T21:46:25.179Z,31.75
2023-03-24T21:48:59.884Z,31.58
2023-03-24T21:51:31.436Z,32.37
2023-03-24T21:54:04.280Z,32.57
2023-03-24T21:56:34.311Z,32.27
2023-03-24T21:59:03.118Z,32.79
2023-03-24T22:01:34.746Z,31.97
2023-03-24T22:04:04.254Z,31.85
2023-03-24T22:06:38.294Z,31.29
2023-03-24T22:09:08.029Z,31.08
2023-03-24T22:11:37.432Z,30.88
2023-03-24T22:14:05.722Z,30.89
2023-03-24T22:16:33.934Z,30.44
2023-03-24T22:19:02.435Z,30.63
2023-03-24T22:21:30.769Z,31.40
2023-03-24T22:23:59.029Z,31.27
2023-03-24T22:26:27.361Z,31.03
2023-03-24T22:28:57.004Z,30.26
2023-03-24T22:31:25.522Z,31.22
2023-03-24T22:33:54.619Z,30.74
2023-03-24T22:36:22.983Z,30.99
2023-03-24T22:38:51.218Z,30.62
2023-03-24T22:41:19.506Z,31.25
2023-03-24T22:43:47.694Z,31.89
2023-03-24T22:46:16.296Z,31.44
2023-03-24T22:48:44.583Z,30.86
2023-03-24T22:51:17.647Z,31.14
2023-03-24T22:53:49.316Z,30.93
2023-03-24T22:56:17.649Z,31.21
2023-03-24T22:58:46.284Z,31.22
2023-03-24T23:01:14.522Z,31.26
2023-03-24T23:03:42.970Z,32.18
2023-03-24T23:06:12.699Z,32.42
2023-03-24T23:08:41.063Z,33.05
2023-03-24T23:11:09.703Z,33.29
2023-03-24T23:13:39.593Z,33.21
2023-03-24T23:16:08.637Z,34.02
2023-03-24T23:18:37.002Z,33.90
2023-03-24T23:21:09.958Z,34.06
2023-03-24T23:23:39.508Z,34.33
2023-03-24T23:26:26.177Z,34.46
2023-03-24T23:28:55.075Z,34.65
2023-03-24T23:31:27.940Z,35.13
2023-03-24T23:33:58.256Z,34.61
2023-03-24T23:36:29.094Z,35.62
2023-03-24T23:38:57.494Z,35.98
2023-03-24T23:41:25.792Z,36.34
2023-03-24T23:43:54.675Z,36.27
2023-03-24T23:46:24.781Z,36.07
2023-03-24T23:48:53.446Z,36.22
2023-03-24T23:51:21.886Z,36.89
2023-03-24T23:53:50.145Z,37.01
2023-03-24T23:56:22.222Z,36.04
2023-03-24T23:58:50.520Z,35.33
